Time;durP1;ratioP1;P1;durP2;ratioP2;P2;SDS_P1;SDS_P2;PMS_P1;PMS_P2;Temp;Humidity;BMP_temperature;BMP_pressure;BME280_temperature;BME280_humidity;BME280_pressure;Samples;Min_cycle;Max_cycle;Signal;HPM_P1;HPM_P2
2023/02/25 00:01:27;;;;;;;6.82;6.32;;;;;;;;;;5023190;28;20042;-88
2023/02/25 00:03:55;;;;;;;12.35;5.70;;;;;;;;;;5033411;28;20049;-88
2023/02/25 00:06:22;;;;;;;8.10;6.38;;;;;;;;;;5024043;28;20539;-90
2023/02/25 00:08:49;;;;;;;2.90;2.80;;;;;;;;;;5013721;28;20053;-87
2023/02/25 00:11:16;;;;;;;5.05;3.50;;;;;;;;;;5021197;28;20038;-88
2023/02/25 00:13:43;;;;;;;3.90;3.22;;;;;;;;;;5033402;28;20053;-88
2023/02/25 00:16:11;;;;;;;4.07;3.78;;;;;;;;;;5026420;28;20093;-88
2023/02/25 00:18:39;;;;;;;5.03;4.53;;;;;;;;;;5032034;28;20464;-88
2023/02/25 00:21:08;;;;;;;4.03;3.67;;;;;;;;;;5027047;28;20048;-88
2023/02/25 00:23:34;;;;;;;3.80;3.38;;;;;;;;;;5013657;28;20049;-88
2023/02/25 00:26:02;;;;;;;6.57;4.32;;;;;;;;;;5013687;28;20053;-88
2023/02/25 00:28:28;;;;;;;7.82;3.38;;;;;;;;;;5013431;28;20088;-89
2023/02/25 00:30:55;;;;;;;8.43;3.53;;;;;;;;;;5016852;28;20058;-89
2023/02/25 00:33:23;;;;;;;3.67;3.38;;;;;;;;;;5022747;28;20054;-88
2023/02/25 00:35:50;;;;;;;3.80;3.55;;;;;;;;;;5016407;28;20037;-89
2023/02/25 00:38:16;;;;;;;3.70;3.42;;;;;;;;;;5032994;28;20092;-89
2023/02/25 00:40:43;;;;;;;4.10;3.80;;;;;;;;;;5033398;28;20056;-89
2023/02/25 00:43:09;;;;;;;3.38;3.17;;;;;;;;;;5033228;28;20049;-89
2023/02/25 00:45:38;;;;;;;5.80;3.80;;;;;;;;;;5032898;28;20045;-89
2023/02/25 00:48:04;;;;;;;4.35;3.53;;;;;;;;;;5015219;28;20088;-89
2023/02/25 00:50:32;;;;;;;3.78;3.58;;;;;;;;;;5027342;28;20046;-89
2023/02/25 00:52:59;;;;;;;4.70;4.35;;;;;;;;;;5017161;28;20050;-89
2023/02/25 00:55:32;;;;;;;4.30;4.00;;;;;;;;;;5016897;28;20104;-88
2023/02/25 00:57:58;;;;;;;4.78;4.43;;;;;;;;;;5036236;28;20061;-88
2023/02/25 01:00:25;;;;;;;3.47;3.22;;;;;;;;;;5036548;28;20108;-89
2023/02/25 01:02:51;;;;;;;4.10;2.67;;;;;;;;;;5036370;28;20061;-89
2023/02/25 01:05:18;;;;;;;5.30;4.68;;;;;;;;;;5036520;28;20107;-88
2023/02/25 01:07:46;;;;;;;5.93;5.40;;;;;;;;;;5019391;28;20119;-89
2023/02/25 01:10:12;;;;;;;6.38;2.60;;;;;;;;;;5017185;28;20462;-90
2023/02/25 01:12:39;;;;;;;4.22;3.90;;;;;;;;;;5033722;28;20132;-90
2023/02/25 01:15:06;;;;;;;4.53;4.13;;;;;;;;;;5036475;28;20473;-90
2023/02/25 01:17:32;;;;;;;2.90;2.78;;;;;;;;;;5036507;28;20063;-89
2023/02/25 01:19:59;;;;;;;3.05;2.78;;;;;;;;;;5036231;28;20107;-89
2023/02/25 01:22:25;;;;;;;7.28;3.90;;;;;;;;;;5022553;28;20049;-89
2023/02/25 01:24:55;;;;;;;4.68;4.38;;;;;;;;;;5016584;28;20050;-89
2023/02/25 01:27:22;;;;;;;3.72;2.58;;;;;;;;;;5016468;28;20046;-89
2023/02/25 01:29:48;;;;;;;3.97;3.65;;;;;;;;;;5016608;28;20124;-89
2023/02/25 01:32:15;;;;;;;4.20;3.72;;;;;;;;;;5026965;28;20053;-89
2023/02/25 01:34:42;;;;;;;5.30;4.80;;;;;;;;;;5036005;28;20518;-89
2023/02/25 01:37:08;;;;;;;3.25;3.10;;;;;;;;;;5035921;28;20056;-89
2023/02/25 01:39:35;;;;;;;4.93;4.28;;;;;;;;;;5035765;28;20115;-89
2023/02/25 01:42:04;;;;;;;3.67;2.45;;;;;;;;;;5035486;28;20561;-89
2023/02/25 01:44:31;;;;;;;7.03;6.45;;;;;;;;;;5036062;28;20049;-89
2023/02/25 01:46:57;;;;;;;5.05;4.43;;;;;;;;;;5027200;28;20053;-89
2023/02/25 01:49:27;;;;;;;5.03;4.25;;;;;;;;;;5028990;28;20053;-89
2023/02/25 01:51:57;;;;;;;3.67;3.47;;;;;;;;;;5035899;28;20180;-89
2023/02/25 01:54:23;;;;;;;1.30;1.27;;;;;;;;;;5035541;28;20115;-89
2023/02/25 01:56:51;;;;;;;6.60;6.15;;;;;;;;;;5035266;28;20104;-89
2023/02/25 01:59:20;;;;;;;3.50;3.20;;;;;;;;;;5035736;28;20056;-89
2023/02/25 02:01:47;;;;;;;4.55;4.03;;;;;;;;;;5035631;28;20501;-89
2023/02/25 02:04:15;;;;;;;3.97;3.63;;;;;;;;;;5036258;28;20053;-89
2023/02/25 02:06:42;;;;;;;3.70;3.47;;;;;;;;;;5035883;28;20049;-89
2023/02/25 02:09:12;;;;;;;3.85;3.20;;;;;;;;;;5035266;28;20057;-89
2023/02/25 02:11:38;;;;;;;4.05;3.75;;;;;;;;;;5035455;28;20045;-89
2023/02/25 02:14:06;;;;;;;2.72;2.20;;;;;;;;;;5036189;28;20419;-89
2023/02/25 02:16:40;;;;;;;2.58;1.48;;;;;;;;;;5032342;28;20495;-89
2023/02/25 02:19:12;;;;;;;3.00;2.65;;;;;;;;;;5015831;28;20077;-89
2023/02/25 02:21:50;;;;;;;4.78;4.05;;;;;;;;;;5029105;28;20045;-89
2023/02/25 02:24:31;;;;;;;8.38;4.82;;;;;;;;;;5037110;28;20141;-90
2023/02/25 02:27:01;;;;;;;4.90;4.45;;;;;;;;;;5039490;28;20045;-89
2023/02/25 02:29:46;;;;;;;5.22;4.82;;;;;;;;;;5040745;28;20542;-88
2023/02/25 02:32:17;;;;;;;6.50;6.03;;;;;;;;;;5043884;28;20058;-90
2023/02/25 02:34:48;;;;;;;5.82;5.30;;;;;;;;;;5043113;28;20109;-90
2023/02/25 02:37:29;;;;;;;7.32;5.50;;;;;;;;;;5035676;28;20046;-89
2023/02/25 02:40:04;;;;;;;5.07;4.68;;;;;;;;;;5045730;28;20054;-89
2023/02/25 02:42:35;;;;;;;3.95;3.72;;;;;;;;;;5045752;28;20045;-91
2023/02/25 02:45:04;;;;;;;4.70;3.42;;;;;;;;;;5045969;28;20080;-90
2023/02/25 02:47:34;;;;;;;4.40;4.00;;;;;;;;;;5043374;28;20568;-88
2023/02/25 02:50:03;;;;;;;4.70;3.88;;;;;;;;;;5040035;28;20049;-89
2023/02/25 02:52:31;;;;;;;3.60;3.20;;;;;;;;;;5028184;28;20046;-89
2023/02/25 02:55:01;;;;;;;6.78;2.97;;;;;;;;;;5022001;28;20105;-90
2023/02/25 02:57:28;;;;;;;2.75;2.65;;;;;;;;;;5037573;28;20049;-90
2023/02/25 02:59:56;;;;;;;2.45;2.25;;;;;;;;;;5035424;28;20084;-90
2023/02/25 03:02:26;;;;;;;3.28;3.17;;;;;;;;;;5035581;28;20108;-91
2023/02/25 03:04:57;;;;;;;18.58;5.57;;;;;;;;;;5035670;28;20053;-91
2023/02/25 03:07:23;;;;;;;1.60;1.58;;;;;;;;;;5027368;28;20107;-91
2023/02/25 03:09:51;;;;;;;4.38;3.90;;;;;;;;;;5015192;28;20120;-91
2023/02/25 03:12:18;;;;;;;4.15;3.92;;;;;;;;;;5028614;28;20045;-91
2023/02/25 03:14:44;;;;;;;6.32;3.90;;;;;;;;;;5035505;28;20053;-91
2023/02/25 03:17:13;;;;;;;3.03;2.92;;;;;;;;;;5029682;28;20487;-90
2023/02/25 03:19:41;;;;;;;3.38;3.08;;;;;;;;;;5014975;28;20054;-90
2023/02/25 03:22:11;;;;;;;1.88;1.77;;;;;;;;;;5019303;28;20472;-91
2023/02/25 03:24:41;;;;;;;4.18;2.53;;;;;;;;;;5034736;28;20419;-91
2023/02/25 03:27:22;;;;;;;5.18;4.75;;;;;;;;;;5034348;28;20049;-91
2023/02/25 03:29:49;;;;;;;3.55;3.25;;;;;;;;;;5034081;28;20045;-90
2023/02/25 03:32:16;;;;;;;4.68;3.30;;;;;;;;;;5034922;28;20045;-90
2023/02/25 03:34:44;;;;;;;3.60;3.38;;;;;;;;;;5034694;28;20545;-90
2023/02/25 03:37:14;;;;;;;3.78;3.53;;;;;;;;;;5034474;28;20617;-90
2023/02/25 03:39:45;;;;;;;3.50;3.30;;;;;;;;;;5034466;28;20136;-90
2023/02/25 03:42:14;;;;;;;3.17;2.97;;;;;;;;;;5034739;28;20049;-90
2023/02/25 03:44:42;;;;;;;5.72;5.22;;;;;;;;;;5032982;28;20049;-90
2023/02/25 03:47:09;;;;;;;5.38;2.72;;;;;;;;;;5033363;28;20050;-90
2023/02/25 03:49:38;;;;;;;5.30;4.05;;;;;;;;;;5034024;28;20053;-90
2023/02/25 03:52:10;;;;;;;3.25;2.53;;;;;;;;;;5033993;28;20388;-90
2023/02/25 03:54:38;;;;;;;4.05;3.75;;;;;;;;;;5033984;28;20077;-90
2023/02/25 03:57:05;;;;;;;3.88;3.60;;;;;;;;;;5034386;28;20049;-90
2023/02/25 03:59:31;;;;;;;3.10;2.90;;;;;;;;;;5032971;28;20780;-90
2023/02/25 04:01:58;;;;;;;5.20;4.72;;;;;;;;;;5016106;28;20050;-90
2023/02/25 04:04:25;;;;;;;3.25;3.03;;;;;;;;;;5034247;28;20057;-91
2023/02/25 04:06:51;;;;;;;4.93;3.40;;;;;;;;;;5034315;28;20111;-90
2023/02/25 04:09:18;;;;;;;2.78;2.53;;;;;;;;;;5014709;28;20053;-91
2023/02/25 04:11:47;;;;;;;3.22;3.13;;;;;;;;;;5014349;28;20053;-91
2023/02/25 04:14:14;;;;;;;4.82;4.53;;;;;;;;;;5014381;28;20081;-91
2023/02/25 04:16:40;;;;;;;4.07;3.28;;;;;;;;;;5032647;28;20041;-91
2023/02/25 04:19:07;;;;;;;2.53;2.40;;;;;;;;;;5034570;28;20061;-91
2023/02/25 04:21:35;;;;;;;3.47;3.28;;;;;;;;;;5034486;28;20107;-91
2023/02/25 04:24:01;;;;;;;2.33;2.20;;;;;;;;;;5034115;28;20049;-90
2023/02/25 04:26:28;;;;;;;4.80;4.32;;;;;;;;;;5034176;28;20885;-91
2023/02/25 04:28:56;;;;;;;3.25;3.05;;;;;;;;;;5034010;28;20057;-91
2023/02/25 04:31:22;;;;;;;4.25;2.80;;;;;;;;;;5033791;28;20045;-91
2023/02/25 04:33:49;;;;;;;4.72;4.38;;;;;;;;;;5034426;28;20049;-90
2023/02/25 04:36:22;;;;;;;2.05;1.85;;;;;;;;;;5034231;28;20049;-90
2023/02/25 04:38:49;;;;;;;4.43;3.78;;;;;;;;;;5033846;28;20057;-90
2023/02/25 04:41:15;;;;;;;2.75;2.55;;;;;;;;;;5033608;28;20049;-90
2023/02/25 04:43:44;;;;;;;5.43;5.00;;;;;;;;;;5034134;28;20073;-90
2023/02/25 04:46:12;;;;;;;6.88;6.47;;;;;;;;;;5033704;28;20045;-89
2023/02/25 04:48:39;;;;;;;5.70;5.38;;;;;;;;;;5021439;28;20057;-90
2023/02/25 04:51:05;;;;;;;4.72;4.32;;;;;;;;;;5033590;28;20128;-91
2023/02/25 04:53:32;;;;;;;3.65;3.38;;;;;;;;;;5033464;28;20068;-91
2023/02/25 04:56:01;;;;;;;7.95;3.45;;;;;;;;;;5033948;28;20049;-91
2023/02/25 04:58:28;;;;;;;2.53;2.33;;;;;;;;;;5033799;28;20053;-91
2023/02/25 05:00:56;;;;;;;2.95;2.78;;;;;;;;;;5033566;28;20054;-91
2023/02/25 05:03:27;;;;;;;4.35;4.15;;;;;;;;;;5024543;28;20048;-89
2023/02/25 05:05:54;;;;;;;5.90;5.32;;;;;;;;;;5016852;28;20527;-90
2023/02/25 05:08:21;;;;;;;5.55;5.22;;;;;;;;;;5033459;28;20053;-90
2023/02/25 05:10:48;;;;;;;3.85;3.55;;;;;;;;;;5033407;28;20103;-91
2023/02/25 05:13:14;;;;;;;2.97;2.80;;;;;;;;;;5033397;28;20111;-89
2023/02/25 05:15:41;;;;;;;3.92;3.53;;;;;;;;;;5033983;28;20111;-91
2023/02/25 05:18:07;;;;;;;3.25;3.05;;;;;;;;;;5032823;28;20091;-90
2023/02/25 05:20:39;;;;;;;2.42;2.28;;;;;;;;;;5033203;28;20052;-91
2023/02/25 05:23:05;;;;;;;4.53;3.80;;;;;;;;;;5032404;28;20560;-89
2023/02/25 05:25:32;;;;;;;4.40;4.10;;;;;;;;;;5032968;28;20057;-90
2023/02/25 05:27:59;;;;;;;2.90;2.70;;;;;;;;;;5028176;28;20133;-90
2023/02/25 05:30:25;;;;;;;2.97;2.83;;;;;;;;;;5013450;28;20057;-91
2023/02/25 05:32:52;;;;;;;4.05;3.75;;;;;;;;;;5013223;28;20100;-91
2023/02/25 05:35:19;;;;;;;3.70;3.53;;;;;;;;;;5016214;28;20455;-90
2023/02/25 05:37:46;;;;;;;2.85;2.65;;;;;;;;;;5016743;28;20188;-90
2023/02/25 05:40:13;;;;;;;6.97;6.03;;;;;;;;;;5029110;28;20045;-90
2023/02/25 05:42:40;;;;;;;1.50;1.42;;;;;;;;;;5035332;28;20113;-90
2023/02/25 05:45:07;;;;;;;6.43;5.80;;;;;;;;;;5016680;28;20491;-91
2023/02/25 05:47:34;;;;;;;5.43;4.85;;;;;;;;;;5016439;28;20057;-91
2023/02/25 05:50:01;;;;;;;3.85;2.40;;;;;;;;;;5036368;28;20045;-91
2023/02/25 05:52:27;;;;;;;3.25;2.97;;;;;;;;;;5036800;28;20087;-90
2023/02/25 05:54:55;;;;;;;5.65;5.15;;;;;;;;;;5017012;28;20459;-91
2023/02/25 05:57:22;;;;;;;4.93;4.55;;;;;;;;;;5030885;28;20486;-91
2023/02/25 05:59:49;;;;;;;3.75;3.45;;;;;;;;;;5036508;28;20073;-90
2023/02/25 06:02:15;;;;;;;6.75;5.40;;;;;;;;;;5036159;28;20099;-91
2023/02/25 06:04:43;;;;;;;3.88;3.58;;;;;;;;;;5028174;28;20052;-91
2023/02/25 06:07:10;;;;;;;2.78;2.33;;;;;;;;;;5036349;28;20060;-91
2023/02/25 06:09:38;;;;;;;7.05;5.15;;;;;;;;;;5036610;28;20053;-91
2023/02/25 06:12:07;;;;;;;4.13;3.83;;;;;;;;;;5036502;28;20077;-91
2023/02/25 06:14:33;;;;;;;5.03;4.68;;;;;;;;;;5019421;28;20054;-92
2023/02/25 06:17:00;;;;;;;4.97;4.53;;;;;;;;;;5016457;28;20049;-92
2023/02/25 06:19:27;;;;;;;16.70;4.78;;;;;;;;;;5020274;28;20475;-92
2023/02/25 06:21:54;;;;;;;3.55;3.28;;;;;;;;;;5041350;28;20407;-91
2023/02/25 06:24:20;;;;;;;5.15;4.85;;;;;;;;;;5040348;28;20042;-88
2023/02/25 06:26:47;;;;;;;3.42;3.22;;;;;;;;;;5050824;28;20048;-92
2023/02/25 06:29:16;;;;;;;4.63;4.22;;;;;;;;;;5039874;28;20089;-91
2023/02/25 06:31:42;;;;;;;5.82;5.43;;;;;;;;;;5046498;28;20179;-90
2023/02/25 06:34:09;;;;;;;5.47;4.97;;;;;;;;;;5050994;28;20040;-91
2023/02/25 06:36:35;;;;;;;4.22;3.97;;;;;;;;;;5047031;28;20529;-90
2023/02/25 06:39:02;;;;;;;6.22;4.85;;;;;;;;;;5048771;28;20153;-90
2023/02/25 06:41:28;;;;;;;6.57;6.05;;;;;;;;;;5050810;28;20486;-90
2023/02/25 06:43:55;;;;;;;7.00;6.50;;;;;;;;;;5046512;28;20049;-90
2023/02/25 06:46:24;;;;;;;5.35;4.95;;;;;;;;;;5041604;28;20104;-90
2023/02/25 06:48:51;;;;;;;5.95;5.53;;;;;;;;;;5035374;28;20049;-89
2023/02/25 06:51:17;;;;;;;14.93;5.25;;;;;;;;;;5035340;28;20045;-93
2023/02/25 06:53:46;;;;;;;6.28;5.88;;;;;;;;;;5028813;28;20738;-90
2023/02/25 06:56:14;;;;;;;12.32;5.32;;;;;;;;;;5015507;28;20108;-89
2023/02/25 06:58:40;;;;;;;5.50;4.80;;;;;;;;;;5023063;28;20049;-90
2023/02/25 07:01:08;;;;;;;4.95;4.70;;;;;;;;;;5035586;28;20053;-90
2023/02/25 07:03:36;;;;;;;5.03;4.28;;;;;;;;;;5034774;28;20041;-91
2023/02/25 07:06:03;;;;;;;7.45;6.68;;;;;;;;;;5035024;28;20053;-88
2023/02/25 07:08:29;;;;;;;6.75;6.15;;;;;;;;;;5030554;28;20065;-88
2023/02/25 07:10:56;;;;;;;6.60;6.05;;;;;;;;;;5015060;28;20053;-90
2023/02/25 07:13:22;;;;;;;10.63;4.30;;;;;;;;;;5015385;28;20100;-90
2023/02/25 07:15:49;;;;;;;6.28;5.68;;;;;;;;;;5015167;28;20108;-89
2023/02/25 07:18:16;;;;;;;4.68;3.88;;;;;;;;;;5015649;28;20061;-89
2023/02/25 07:20:43;;;;;;;5.55;5.20;;;;;;;;;;5015607;28;20141;-89
2023/02/25 07:23:10;;;;;;;4.35;3.97;;;;;;;;;;5014678;28;20103;-89
2023/02/25 07:25:37;;;;;;;8.63;6.25;;;;;;;;;;5015672;28;20495;-89
2023/02/25 07:28:04;;;;;;;6.22;5.07;;;;;;;;;;5014488;28;20096;-88
2023/02/25 07:30:31;;;;;;;5.32;4.80;;;;;;;;;;5014522;28;20443;-89
2023/02/25 07:32:58;;;;;;;7.55;6.47;;;;;;;;;;5014181;28;20491;-89
2023/02/25 07:35:24;;;;;;;6.10;5.60;;;;;;;;;;5017083;28;20050;-89
2023/02/25 07:37:52;;;;;;;6.18;5.80;;;;;;;;;;5034304;28;20049;-90
2023/02/25 07:40:19;;;;;;;7.05;6.70;;;;;;;;;;5034035;28;20052;-90
2023/02/25 07:42:45;;;;;;;6.60;6.25;;;;;;;;;;5034325;28;20053;-89
2023/02/25 07:45:12;;;;;;;6.57;6.13;;;;;;;;;;5034029;28;20091;-89
2023/02/25 07:47:38;;;;;;;4.65;4.35;;;;;;;;;;5034198;28;20411;-90
2023/02/25 07:50:06;;;;;;;5.25;4.85;;;;;;;;;;5033932;28;20104;-88
2023/02/25 07:52:32;;;;;;;7.40;6.80;;;;;;;;;;5032931;28;20462;-89
2023/02/25 07:55:00;;;;;;;6.25;5.65;;;;;;;;;;5034141;28;20119;-89
2023/02/25 07:57:27;;;;;;;3.97;3.78;;;;;;;;;;5033234;28;20041;-89
2023/02/25 07:59:54;;;;;;;6.45;5.80;;;;;;;;;;5033676;28;20651;-91
2023/02/25 08:02:21;;;;;;;5.75;5.25;;;;;;;;;;5033393;28;20099;-89
2023/02/25 08:04:47;;;;;;;4.65;4.30;;;;;;;;;;5033014;28;20653;-89
2023/02/25 08:07:14;;;;;;;5.30;4.90;;;;;;;;;;5033651;28;20119;-89
2023/02/25 08:09:41;;;;;;;5.78;5.28;;;;;;;;;;5023369;28;20570;-89
2023/02/25 08:12:08;;;;;;;9.65;6.93;;;;;;;;;;5013875;28;20050;-90
2023/02/25 08:14:37;;;;;;;6.85;4.80;;;;;;;;;;5022609;28;20049;-89
2023/02/25 08:17:03;;;;;;;5.50;5.00;;;;;;;;;;5033477;28;20510;-89
2023/02/25 08:19:30;;;;;;;5.05;4.63;;;;;;;;;;5033434;28;20057;-88
2023/02/25 08:21:57;;;;;;;6.65;3.95;;;;;;;;;;5033289;28;20054;-90
2023/02/25 08:24:23;;;;;;;9.20;7.88;;;;;;;;;;5033438;28;20068;-89
2023/02/25 08:26:50;;;;;;;5.05;4.38;;;;;;;;;;5034715;28;20049;-90
2023/02/25 08:29:18;;;;;;;4.13;3.72;;;;;;;;;;5035381;28;20049;-90
2023/02/25 08:31:46;;;;;;;5.97;5.53;;;;;;;;;;5033445;28;20083;-88
2023/02/25 08:34:13;;;;;;;11.27;6.40;;;;;;;;;;5027983;28;20046;-87
2023/02/25 08:36:40;;;;;;;8.63;6.25;;;;;;;;;;5012810;28;20080;-88
2023/02/25 08:39:07;;;;;;;7.78;6.35;;;;;;;;;;5013540;28;20050;-88
2023/02/25 08:41:34;;;;;;;6.47;5.97;;;;;;;;;;5018301;28;20060;-88
2023/02/25 08:44:01;;;;;;;7.07;6.55;;;;;;;;;;5032538;28;20042;-87
2023/02/25 08:46:29;;;;;;;5.55;5.15;;;;;;;;;;5032566;28;20491;-89
2023/02/25 08:48:56;;;;;;;6.18;5.65;;;;;;;;;;5032735;28;20061;-88
2023/02/25 08:51:25;;;;;;;9.77;5.50;;;;;;;;;;5032554;28;20553;-87
2023/02/25 08:53:51;;;;;;;8.98;8.38;;;;;;;;;;5031517;28;20479;-87
2023/02/25 08:56:18;;;;;;;5.60;5.10;;;;;;;;;;5013337;28;20046;-88
2023/02/25 08:58:44;;;;;;;5.85;5.32;;;;;;;;;;5016231;28;20045;-89
2023/02/25 09:01:12;;;;;;;8.02;5.57;;;;;;;;;;5013150;28;20046;-89
2023/02/25 09:03:52;;;;;;;8.82;8.23;;;;;;;;;;5013511;28;20050;-89
2023/02/25 09:06:18;;;;;;;5.55;5.15;;;;;;;;;;5012995;28;20137;-87
2023/02/25 09:08:45;;;;;;;7.55;6.82;;;;;;;;;;5013962;28;20042;-87
2023/02/25 09:11:11;;;;;;;4.65;4.32;;;;;;;;;;5016605;28;20046;-90
2023/02/25 09:13:38;;;;;;;6.32;5.70;;;;;;;;;;5017976;28;20054;-89
2023/02/25 09:16:05;;;;;;;14.35;8.55;;;;;;;;;;5017686;28;20049;-88
2023/02/25 09:18:31;;;;;;;4.63;4.43;;;;;;;;;;5017388;28;20104;-88
2023/02/25 09:20:59;;;;;;;4.80;4.40;;;;;;;;;;5017788;28;20050;-89
2023/02/25 09:23:26;;;;;;;5.18;4.78;;;;;;;;;;5016953;28;20050;-89
2023/02/25 09:25:52;;;;;;;7.63;6.93;;;;;;;;;;5032213;28;20049;-87
2023/02/25 09:28:19;;;;;;;5.72;5.20;;;;;;;;;;5035878;28;20501;-88
2023/02/25 09:30:46;;;;;;;5.88;5.45;;;;;;;;;;5036696;28;20045;-87
2023/02/25 09:33:12;;;;;;;9.00;8.45;;;;;;;;;;5035882;28;20132;-88
2023/02/25 09:35:39;;;;;;;7.03;4.63;;;;;;;;;;5036436;28;20093;-89
2023/02/25 09:38:07;;;;;;;5.43;5.03;;;;;;;;;;5036437;28;20052;-88
2023/02/25 09:40:34;;;;;;;6.30;5.75;;;;;;;;;;5037002;28;20076;-90
2023/02/25 09:43:05;;;;;;;6.93;6.43;;;;;;;;;;5037145;28;20096;-91
2023/02/25 09:45:33;;;;;;;7.32;6.60;;;;;;;;;;5022816;28;20092;-90
2023/02/25 09:48:00;;;;;;;9.13;6.15;;;;;;;;;;5017063;28;20415;-91
2023/02/25 09:50:28;;;;;;;6.40;5.93;;;;;;;;;;5016691;28;20061;-90
2023/02/25 09:53:00;;;;;;;10.73;10.00;;;;;;;;;;5015969;28;20107;-90
2023/02/25 09:55:31;;;;;;;6.63;6.03;;;;;;;;;;5016300;28;20057;-89
2023/02/25 09:58:02;;;;;;;6.85;6.35;;;;;;;;;;5016660;28;20058;-90
2023/02/25 10:00:31;;;;;;;6.45;6.00;;;;;;;;;;5016555;28;20096;-90
2023/02/25 10:02:59;;;;;;;7.80;7.10;;;;;;;;;;5016790;28;20499;-90
2023/02/25 10:05:29;;;;;;;7.78;7.07;;;;;;;;;;5016355;28;20054;-91
2023/02/25 10:07:58;;;;;;;6.97;6.35;;;;;;;;;;5017023;28;20570;-88
2023/02/25 10:10:27;;;;;;;8.02;7.38;;;;;;;;;;5017120;28;20046;-89
2023/02/25 10:13:03;;;;;;;7.95;7.53;;;;;;;;;;5016876;28;20073;-90
2023/02/25 10:15:37;;;;;;;7.05;6.32;;;;;;;;;;5025898;28;20045;-90
2023/02/25 10:18:11;;;;;;;7.00;6.40;;;;;;;;;;5035336;28;20561;-89
2023/02/25 10:20:43;;;;;;;8.00;7.43;;;;;;;;;;5025086;28;20132;-90
2023/02/25 10:23:17;;;;;;;9.02;8.32;;;;;;;;;;5015816;28;20107;-88
2023/02/25 10:25:47;;;;;;;8.23;7.47;;;;;;;;;;5015695;28;20057;-89
2023/02/25 10:28:17;;;;;;;6.72;6.10;;;;;;;;;;5016109;28;20451;-88
2023/02/25 10:30:48;;;;;;;7.20;6.80;;;;;;;;;;5015943;28;20056;-88
2023/02/25 10:33:16;;;;;;;7.03;6.43;;;;;;;;;;5015865;28;20053;-88
2023/02/25 10:35:42;;;;;;;7.80;7.20;;;;;;;;;;5032984;28;20045;-88
2023/02/25 10:38:09;;;;;;;7.50;6.90;;;;;;;;;;5035322;28;20057;-90
2023/02/25 10:40:37;;;;;;;12.02;10.20;;;;;;;;;;5035618;28;20049;-88
2023/02/25 10:43:10;;;;;;;6.50;6.10;;;;;;;;;;5016078;28;20401;-89
2023/02/25 10:45:39;;;;;;;9.60;8.88;;;;;;;;;;5024247;28;20517;-88
2023/02/25 10:48:07;;;;;;;11.85;8.55;;;;;;;;;;5035305;28;20053;-88
2023/02/25 10:50:33;;;;;;;9.52;8.85;;;;;;;;;;5027526;28;20058;-88
2023/02/25 10:53:01;;;;;;;8.23;7.25;;;;;;;;;;5015278;28;20054;-88
2023/02/25 10:55:31;;;;;;;9.63;9.02;;;;;;;;;;5023475;28;20046;-89
2023/02/25 10:57:59;;;;;;;8.80;7.45;;;;;;;;;;5035648;28;20121;-88
2023/02/25 11:00:27;;;;;;;6.30;5.75;;;;;;;;;;5038023;28;20077;-87
2023/02/25 11:02:57;;;;;;;9.60;7.50;;;;;;;;;;5025142;28;20050;-88
2023/02/25 11:05:30;;;;;;;8.88;8.02;;;;;;;;;;5032352;28;20101;-87
2023/02/25 11:07:57;;;;;;;6.93;6.40;;;;;;;;;;5045045;28;20053;-89
2023/02/25 11:10:24;;;;;;;8.73;7.90;;;;;;;;;;5038209;28;20187;-89
2023/02/25 11:12:51;;;;;;;9.50;8.38;;;;;;;;;;5034851;28;20077;-88
2023/02/25 11:15:26;;;;;;;7.63;7.15;;;;;;;;;;5034419;28;20558;-90
2023/02/25 11:17:53;;;;;;;7.30;6.72;;;;;;;;;;5035184;28;20053;-89
2023/02/25 11:20:23;;;;;;;6.50;6.03;;;;;;;;;;5034924;28;20046;-88
2023/02/25 11:22:52;;;;;;;8.25;7.65;;;;;;;;;;5034957;28;20049;-88
2023/02/25 11:25:19;;;;;;;9.82;9.00;;;;;;;;;;5034826;28;20060;-89
2023/02/25 11:27:48;;;;;;;7.30;6.70;;;;;;;;;;5033790;28;20107;-87
2023/02/25 11:30:19;;;;;;;12.52;11.48;;;;;;;;;;5030350;28;20046;-87
2023/02/25 11:32:45;;;;;;;;;;;;;;;;;;5014059;28;20699;-89
2023/02/25 11:35:17;;;;;;;8.85;8.23;;;;;;;;;;5014079;28;19921;-88
2023/02/25 11:37:46;;;;;;;6.57;6.13;;;;;;;;;;5014186;28;20054;-89
2023/02/25 11:40:21;;;;;;;8.75;8.05;;;;;;;;;;5014055;28;20054;-88
2023/02/25 11:43:00;;;;;;;8.35;7.75;;;;;;;;;;5013768;28;20061;-88
2023/02/25 11:45:27;;;;;;;9.25;8.52;;;;;;;;;;5017482;28;20038;-88
2023/02/25 11:47:54;;;;;;;5.85;5.30;;;;;;;;;;5033274;28;20384;-88
2023/02/25 11:50:23;;;;;;;7.00;6.68;;;;;;;;;;5030168;28;20048;-88
2023/02/25 11:52:55;;;;;;;6.65;6.20;;;;;;;;;;5013812;28;20128;-88
2023/02/25 11:55:30;;;;;;;7.85;7.15;;;;;;;;;;5016818;28;20096;-88
2023/02/25 11:58:02;;;;;;;7.88;7.38;;;;;;;;;;5033468;28;20049;-88
2023/02/25 12:00:33;;;;;;;6.47;5.95;;;;;;;;;;5030875;28;20053;-89
2023/02/25 12:03:15;;;;;;;8.90;7.75;;;;;;;;;;5033349;28;20570;-89
2023/02/25 12:05:46;;;;;;;8.20;7.53;;;;;;;;;;5027729;28;20046;-88
2023/02/25 12:08:31;;;;;;;9.68;8.70;;;;;;;;;;5013722;28;20108;-88
2023/02/25 12:11:13;;;;;;;8.70;7.72;;;;;;;;;;5010224;28;20060;-89
2023/02/25 12:13:58;;;;;;;7.00;6.38;;;;;;;;;;5033300;28;20467;-89
2023/02/25 12:16:43;;;;;;;7.40;6.82;;;;;;;;;;5033629;28;20128;-89
2023/02/25 12:19:20;;;;;;;7.03;6.53;;;;;;;;;;5033545;28;20048;-89
2023/02/25 12:22:03;;;;;;;5.55;5.13;;;;;;;;;;5033134;28;20053;-89
2023/02/25 12:24:42;;;;;;;6.53;6.07;;;;;;;;;;5013482;28;20132;-90
2023/02/25 12:27:33;;;;;;;8.90;8.02;;;;;;;;;;5013474;28;20077;-88
2023/02/25 12:30:14;;;;;;;7.18;6.57;;;;;;;;;;5018959;28;20056;-88
2023/02/25 12:32:52;;;;;;;8.18;7.45;;;;;;;;;;5013254;28;20496;-88
2023/02/25 12:35:27;;;;;;;6.88;6.00;;;;;;;;;;5013158;28;20461;-88
2023/02/25 12:38:02;;;;;;;8.85;8.23;;;;;;;;;;5012615;28;20112;-90
2023/02/25 12:40:38;;;;;;;7.78;6.53;;;;;;;;;;5014977;28;20049;-89
2023/02/25 12:43:12;;;;;;;12.38;6.85;;;;;;;;;;5032973;28;20107;-88
2023/02/25 12:46:03;;;;;;;7.40;6.65;;;;;;;;;;5036632;28;20050;-89
2023/02/25 12:48:40;;;;;;;8.55;7.80;;;;;;;;;;5037868;28;20108;-89
2023/02/25 12:51:16;;;;;;;7.72;7.22;;;;;;;;;;5030857;28;20049;-89
2023/02/25 12:53:48;;;;;;;6.90;6.00;;;;;;;;;;5016991;28;20116;-88
2023/02/25 12:56:24;;;;;;;6.57;6.18;;;;;;;;;;5016901;28;20049;-89
2023/02/25 12:59:09;;;;;;;6.05;5.60;;;;;;;;;;5032619;28;20053;-89
2023/02/25 13:01:47;;;;;;;6.32;5.85;;;;;;;;;;5036956;28;20053;-89
2023/02/25 13:04:28;;;;;;;9.32;8.55;;;;;;;;;;5036826;28;20056;-89
2023/02/25 13:07:07;;;;;;;6.07;5.68;;;;;;;;;;5034412;28;20111;-89
2023/02/25 13:09:45;;;;;;;5.47;4.20;;;;;;;;;;5037256;28;20416;-89
2023/02/25 13:12:17;;;;;;;7.57;6.95;;;;;;;;;;5036402;28;20057;-89
2023/02/25 13:14:49;;;;;;;6.63;6.18;;;;;;;;;;5035961;28;20045;-90
2023/02/25 13:17:36;;;;;;;7.40;6.60;;;;;;;;;;5036640;28;20049;-90
2023/02/25 13:20:20;;;;;;;9.35;8.52;;;;;;;;;;5029125;28;20053;-90
2023/02/25 13:22:55;;;;;;;5.22;4.82;;;;;;;;;;5025282;28;20494;-90
2023/02/25 13:25:25;;;;;;;9.82;7.50;;;;;;;;;;5036511;28;20057;-89
2023/02/25 13:27:59;;;;;;;10.32;9.73;;;;;;;;;;5017534;28;20550;-90
2023/02/25 13:30:29;;;;;;;6.85;6.35;;;;;;;;;;5019144;28;20148;-90
2023/02/25 13:33:00;;;;;;;7.90;6.28;;;;;;;;;;5036090;28;20053;-90
2023/02/25 13:35:31;;;;;;;8.75;8.05;;;;;;;;;;5031525;28;20042;-89
2023/02/25 13:38:06;;;;;;;7.40;6.82;;;;;;;;;;5019454;28;20053;-89
2023/02/25 13:40:39;;;;;;;7.30;6.82;;;;;;;;;;5018090;28;20054;-89
2023/02/25 13:43:32;;;;;;;5.97;5.47;;;;;;;;;;5035311;28;20049;-89
2023/02/25 13:46:08;;;;;;;7.18;6.47;;;;;;;;;;4965607;28;20109;-89
2023/02/25 13:48:49;;;;;;;6.65;5.32;;;;;;;;;;4974934;28;20101;-90
2023/02/25 13:51:31;;;;;;;8.93;7.57;;;;;;;;;;4975008;28;20086;-89
2023/02/25 13:54:18;;;;;;;7.00;6.15;;;;;;;;;;4966221;28;20055;-89
2023/02/25 13:57:01;;;;;;;6.05;5.45;;;;;;;;;;4955382;28;20555;-88
2023/02/25 13:59:48;;;;;;;6.82;6.35;;;;;;;;;;4955441;29;20051;-89
2023/02/25 14:02:38;;;;;;;8.85;7.95;;;;;;;;;;4954807;28;20043;-90
2023/02/25 14:05:18;;;;;;;4.65;4.35;;;;;;;;;;4955262;29;20106;-89
2023/02/25 14:07:54;;;;;;;4.82;4.53;;;;;;;;;;4970930;28;20043;-88
2023/02/25 14:10:27;;;;;;;7.53;6.03;;;;;;;;;;4973618;28;20766;-87
2023/02/25 14:13:01;;;;;;;10.25;9.35;;;;;;;;;;4958124;28;20055;-87
2023/02/25 14:15:41;;;;;;;6.15;4.88;;;;;;;;;;4954413;29;20600;-88
2023/02/25 14:18:12;;;;;;;6.35;4.65;;;;;;;;;;4958338;28;20055;-88
2023/02/25 14:20:46;;;;;;;7.40;6.88;;;;;;;;;;4975675;28;20050;-87
2023/02/25 14:23:14;;;;;;;7.07;5.20;;;;;;;;;;5034875;28;20478;-87
2023/02/25 14:25:58;;;;;;;6.43;4.53;;;;;;;;;;5034746;28;20050;-88
2023/02/25 14:28:32;;;;;;;10.05;9.30;;;;;;;;;;5004573;28;20100;-88
2023/02/25 14:31:07;;;;;;;5.70;5.25;;;;;;;;;;5014582;28;20108;-87
2023/02/25 14:33:51;;;;;;;10.05;9.35;;;;;;;;;;5015047;28;20108;-88
2023/02/25 14:36:25;;;;;;;5.65;4.57;;;;;;;;;;5030544;28;20046;-88
2023/02/25 14:39:05;;;;;;;7.28;6.43;;;;;;;;;;5014526;28;20053;-88
2023/02/25 14:41:37;;;;;;;4.88;4.45;;;;;;;;;;5014403;28;20062;-87
2023/02/25 14:44:07;;;;;;;6.45;5.20;;;;;;;;;;5014578;28;20045;-88
2023/02/25 14:46:39;;;;;;;8.70;6.85;;;;;;;;;;5014305;28;20086;-88
2023/02/25 14:49:08;;;;;;;5.95;5.50;;;;;;;;;;5014433;28;20054;-88
2023/02/25 14:51:56;;;;;;;5.10;4.70;;;;;;;;;;5026327;28;20053;-88
2023/02/25 14:54:50;;;;;;;7.32;6.82;;;;;;;;;;5014991;28;20485;-88
2023/02/25 14:57:41;;;;;;;8.02;7.47;;;;;;;;;;4962321;28;20046;-88
2023/02/25 15:00:22;;;;;;;7.00;6.50;;;;;;;;;;4973289;28;20105;-88